sensor_id;sensor_type;location;lat;lon;timestamp;temperature;humidity
50586;DHT22;36542;51.700;8.846;2023-08-30T00:00:30;10.80;99.90
50586;DHT22;36542;51.700;8.846;2023-08-30T00:02:56;10.70;99.90
50586;DHT22;36542;51.700;8.846;2023-08-30T00:05:22;10.70;99.90
50586;DHT22;36542;51.700;8.846;2023-08-30T00:07:49;10.70;99.90
50586;DHT22;36542;51.700;8.846;2023-08-30T00:10:15;10.70;99.90
50586;DHT22;36542;51.700;8.846;2023-08-30T00:12:42;10.70;99.90
50586;DHT22;36542;51.700;8.846;2023-08-30T00:15:07;10.80;99.90
50586;DHT22;36542;51.700;8.846;2023-08-30T00:17:33;10.80;99.90
50586;DHT22;36542;51.700;8.846;2023-08-30T00:19:58;10.80;99.90
50586;DHT22;36542;51.700;8.846;2023-08-30T00:22:25;10.90;99.90
50586;DHT22;36542;51.700;8.846;2023-08-30T00:24:53;10.90;99.90
50586;DHT22;36542;51.700;8.846;2023-08-30T00:27:18;10.80;99.90
50586;DHT22;36542;51.700;8.846;2023-08-30T00:29:46;10.80;99.90
50586;DHT22;36542;51.700;8.846;2023-08-30T00:32:11;10.90;99.90
50586;DHT22;36542;51.700;8.846;2023-08-30T00:34:37;10.90;99.90
50586;DHT22;36542;51.700;8.846;2023-08-30T00:37:02;10.90;99.90
50586;DHT22;36542;51.700;8.846;2023-08-30T00:39:28;10.90;99.90
50586;DHT22;36542;51.700;8.846;2023-08-30T00:41:53;10.80;99.90
50586;DHT22;36542;51.700;8.846;2023-08-30T00:44:19;10.80;99.90
50586;DHT22;36542;51.700;8.846;2023-08-30T00:46:44;10.70;99.90
50586;DHT22;36542;51.700;8.846;2023-08-30T00:49:10;10.70;99.90
50586;DHT22;36542;51.700;8.846;2023-08-30T00:51:36;10.60;99.90
50586;DHT22;36542;51.700;8.846;2023-08-30T00:54:02;10.60;99.90
50586;DHT22;36542;51.700;8.846;2023-08-30T00:56:28;10.60;99.90
50586;DHT22;36542;51.700;8.846;2023-08-30T00:58:54;10.70;99.90
50586;DHT22;36542;51.700;8.846;2023-08-30T01:01:20;10.70;99.90
50586;DHT22;36542;51.700;8.846;2023-08-30T01:03:46;10.70;99.90
50586;DHT22;36542;51.700;8.846;2023-08-30T01:06:11;10.70;99.90
50586;DHT22;36542;51.700;8.846;2023-08-30T01:08:40;10.70;99.90
50586;DHT22;36542;51.700;8.846;2023-08-30T01:11:32;10.70;99.90
50586;DHT22;36542;51.700;8.846;2023-08-30T01:14:13;10.70;99.90
50586;DHT22;36542;51.700;8.846;2023-08-30T01:16:40;10.60;99.90
50586;DHT22;36542;51.700;8.846;2023-08-30T01:25:17;10.40;99.90
50586;DHT22;36542;51.700;8.846;2023-08-30T01:27:45;10.40;99.90
50586;DHT22;36542;51.700;8.846;2023-08-30T01:30:13;10.40;99.90
50586;DHT22;36542;51.700;8.846;2023-08-30T01:32:40;10.50;99.90
50586;DHT22;36542;51.700;8.846;2023-08-30T01:35:08;10.50;99.90
50586;DHT22;36542;51.700;8.846;2023-08-30T01:37:33;10.60;99.90
50586;DHT22;36542;51.700;8.846;2023-08-30T01:40:01;10.60;99.90
50586;DHT22;36542;51.700;8.846;2023-08-30T01:42:29;10.70;99.90
50586;DHT22;36542;51.700;8.846;2023-08-30T01:44:56;10.70;99.90
50586;DHT22;36542;51.700;8.846;2023-08-30T01:47:25;10.70;99.90
50586;DHT22;36542;51.700;8.846;2023-08-30T01:49:52;10.80;99.90
50586;DHT22;36542;51.700;8.846;2023-08-30T01:52:18;10.80;99.90
50586;DHT22;36542;51.700;8.846;2023-08-30T01:54:45;10.90;99.90
50586;DHT22;36542;51.700;8.846;2023-08-30T01:57:11;10.90;99.90
50586;DHT22;36542;51.700;8.846;2023-08-30T01:59:37;11.00;99.90
50586;DHT22;36542;51.700;8.846;2023-08-30T02:02:03;11.10;99.90
50586;DHT22;36542;51.700;8.846;2023-08-30T02:04:29;11.10;99.90
50586;DHT22;36542;51.700;8.846;2023-08-30T02:07:04;11.20;99.90
50586;DHT22;36542;51.700;8.846;2023-08-30T02:09:39;11.20;99.90
50586;DHT22;36542;51.700;8.846;2023-08-30T02:12:07;11.20;99.90
50586;DHT22;36542;51.700;8.846;2023-08-30T02:14:37;11.20;99.90
50586;DHT22;36542;51.700;8.846;2023-08-30T02:17:04;11.30;99.90
50586;DHT22;36542;51.700;8.846;2023-08-30T02:19:30;11.30;99.90
50586;DHT22;36542;51.700;8.846;2023-08-30T02:21:55;11.30;99.90
50586;DHT22;36542;51.700;8.846;2023-08-30T02:24:21;11.40;99.90
50586;DHT22;36542;51.700;8.846;2023-08-30T02:26:46;11.50;99.90
50586;DHT22;36542;51.700;8.846;2023-08-30T02:29:12;11.50;99.90
50586;DHT22;36542;51.700;8.846;2023-08-30T02:31:38;11.50;99.90
50586;DHT22;36542;51.700;8.846;2023-08-30T02:34:04;11.50;99.90
50586;DHT22;36542;51.700;8.846;2023-08-30T02:36:29;11.50;99.90
50586;DHT22;36542;51.700;8.846;2023-08-30T02:38:55;11.50;99.90
50586;DHT22;36542;51.700;8.846;2023-08-30T02:41:20;11.50;99.90
50586;DHT22;36542;51.700;8.846;2023-08-30T02:43:46;11.60;99.90
50586;DHT22;36542;51.700;8.846;2023-08-30T02:46:11;11.60;99.90
50586;DHT22;36542;51.700;8.846;2023-08-30T02:48:37;11.70;99.90
50586;DHT22;36542;51.700;8.846;2023-08-30T02:51:02;11.70;99.90
50586;DHT22;36542;51.700;8.846;2023-08-30T02:53:28;11.80;99.90
50586;DHT22;36542;51.700;8.846;2023-08-30T02:55:53;11.80;99.90
50586;DHT22;36542;51.700;8.846;2023-08-30T02:58:21;11.90;99.90
50586;DHT22;36542;51.700;8.846;2023-08-30T03:00:46;11.90;99.90
50586;DHT22;36542;51.700;8.846;2023-08-30T03:03:12;11.90;99.90
50586;DHT22;36542;51.700;8.846;2023-08-30T03:05:37;11.90;99.90
50586;DHT22;36542;51.700;8.846;2023-08-30T03:08:03;11.90;99.90
50586;DHT22;36542;51.700;8.846;2023-08-30T03:10:29;11.90;99.90
50586;DHT22;36542;51.700;8.846;2023-08-30T03:12:54;11.90;99.90
50586;DHT22;36542;51.700;8.846;2023-08-30T03:15:20;11.80;99.90
50586;DHT22;36542;51.700;8.846;2023-08-30T03:17:45;11.80;99.90
50586;DHT22;36542;51.700;8.846;2023-08-30T03:20:11;11.80;99.90
50586;DHT22;36542;51.700;8.846;2023-08-30T03:22:37;11.80;99.90
50586;DHT22;36542;51.700;8.846;2023-08-30T03:25:02;11.70;99.90
50586;DHT22;36542;51.700;8.846;2023-08-30T03:27:29;11.60;99.90
50586;DHT22;36542;51.700;8.846;2023-08-30T03:29:55;11.60;99.90
50586;DHT22;36542;51.700;8.846;2023-08-30T03:32:21;11.50;99.90
50586;DHT22;36542;51.700;8.846;2023-08-30T03:34:47;11.50;99.90
50586;DHT22;36542;51.700;8.846;2023-08-30T03:37:14;11.50;99.90
50586;DHT22;36542;51.700;8.846;2023-08-30T03:39:40;11.60;99.90
50586;DHT22;36542;51.700;8.846;2023-08-30T03:42:06;11.60;99.90
50586;DHT22;36542;51.700;8.846;2023-08-30T03:44:31;11.60;99.90
50586;DHT22;36542;51.700;8.846;2023-08-30T03:46:57;11.60;99.90
50586;DHT22;36542;51.700;8.846;2023-08-30T03:49:23;11.60;99.90
50586;DHT22;36542;51.700;8.846;2023-08-30T03:51:48;11.60;99.90
50586;DHT22;36542;51.700;8.846;2023-08-30T03:54:14;11.60;99.90
50586;DHT22;36542;51.700;8.846;2023-08-30T03:56:42;11.70;99.90
50586;DHT22;36542;51.700;8.846;2023-08-30T03:59:08;11.70;99.90
50586;DHT22;36542;51.700;8.846;2023-08-30T04:01:33;11.70;99.90
50586;DHT22;36542;51.700;8.846;2023-08-30T04:03:59;11.80;99.90
50586;DHT22;36542;51.700;8.846;2023-08-30T04:06:24;11.80;99.90
50586;DHT22;36542;51.700;8.846;2023-08-30T04:08:50;11.90;99.90
50586;DHT22;36542;51.700;8.846;2023-08-30T04:11:15;11.90;99.90
50586;DHT22;36542;51.700;8.846;2023-08-30T04:13:41;12.00;99.90
50586;DHT22;36542;51.700;8.846;2023-08-30T04:16:06;11.90;99.90
50586;DHT22;36542;51.700;8.846;2023-08-30T04:18:32;11.90;99.90
50586;DHT22;36542;51.700;8.846;2023-08-30T04:20:58;11.90;99.90
50586;DHT22;36542;51.700;8.846;2023-08-30T04:23:24;11.90;99.90
50586;DHT22;36542;51.700;8.846;2023-08-30T04:25:50;11.90;99.90
50586;DHT22;36542;51.700;8.846;2023-08-30T04:28:15;11.90;99.90
50586;DHT22;36542;51.700;8.846;2023-08-30T04:30:41;12.00;99.90
50586;DHT22;36542;51.700;8.846;2023-08-30T04:33:06;12.00;99.90
50586;DHT22;36542;51.700;8.846;2023-08-30T04:35:32;12.00;99.90
50586;DHT22;36542;51.700;8.846;2023-08-30T04:37:59;12.00;99.90
50586;DHT22;36542;51.700;8.846;2023-08-30T04:40:24;12.00;99.90
50586;DHT22;36542;51.700;8.846;2023-08-30T04:42:50;12.00;99.90
50586;DHT22;36542;51.700;8.846;2023-08-30T04:45:16;12.00;99.90
50586;DHT22;36542;51.700;8.846;2023-08-30T04:47:41;12.00;99.90
50586;DHT22;36542;51.700;8.846;2023-08-30T04:50:09;12.00;99.90
50586;DHT22;36542;51.700;8.846;2023-08-30T04:52:34;12.00;99.90
50586;DHT22;36542;51.700;8.846;2023-08-30T04:55:00;12.10;99.90
50586;DHT22;36542;51.700;8.846;2023-08-30T04:57:25;12.10;99.90
50586;DHT22;36542;51.700;8.846;2023-08-30T04:59:51;12.10;99.90
50586;DHT22;36542;51.700;8.846;2023-08-30T05:02:16;12.10;99.90
50586;DHT22;36542;51.700;8.846;2023-08-30T05:04:42;12.00;99.90
50586;DHT22;36542;51.700;8.846;2023-08-30T05:07:07;12.00;99.90
50586;DHT22;36542;51.700;8.846;2023-08-30T05:09:33;12.10;99.90
50586;DHT22;36542;51.700;8.846;2023-08-30T05:12:00;12.10;99.90
50586;DHT22;36542;51.700;8.846;2023-08-30T05:14:25;12.20;99.90
50586;DHT22;36542;51.700;8.846;2023-08-30T05:16:51;12.30;99.90
50586;DHT22;36542;51.700;8.846;2023-08-30T05:19:16;12.30;99.90
50586;DHT22;36542;51.700;8.846;2023-08-30T05:21:43;12.40;99.90
50586;DHT22;36542;51.700;8.846;2023-08-30T05:24:08;12.50;99.90
50586;DHT22;36542;51.700;8.846;2023-08-30T05:26:34;12.60;99.90
50586;DHT22;36542;51.700;8.846;2023-08-30T05:28:59;12.60;99.90
50586;DHT22;36542;51.700;8.846;2023-08-30T05:31:25;12.70;99.90
50586;DHT22;36542;51.700;8.846;2023-08-30T05:33:50;12.80;99.90
50586;DHT22;36542;51.700;8.846;2023-08-30T05:36:17;12.90;99.90
50586;DHT22;36542;51.700;8.846;2023-08-30T05:38:42;12.90;99.90
50586;DHT22;36542;51.700;8.846;2023-08-30T05:41:08;13.00;99.90
50586;DHT22;36542;51.700;8.846;2023-08-30T05:43:34;13.10;99.90
50586;DHT22;36542;51.700;8.846;2023-08-30T05:45:59;13.20;99.90
50586;DHT22;36542;51.700;8.846;2023-08-30T05:48:28;13.30;99.90
50586;DHT22;36542;51.700;8.846;2023-08-30T05:50:53;13.50;99.90
50586;DHT22;36542;51.700;8.846;2023-08-30T05:53:19;13.80;99.90
50586;DHT22;36542;51.700;8.846;2023-08-30T05:55:44;14.10;99.90
50586;DHT22;36542;51.700;8.846;2023-08-30T05:58:10;14.30;99.90
50586;DHT22;36542;51.700;8.846;2023-08-30T06:00:35;14.60;99.90
50586;DHT22;36542;51.700;8.846;2023-08-30T06:03:01;15.00;99.90
50586;DHT22;36542;51.700;8.846;2023-08-30T06:05:28;15.40;99.90
50586;DHT22;36542;51.700;8.846;2023-08-30T06:07:53;15.60;99.90
50586;DHT22;36542;51.700;8.846;2023-08-30T06:10:19;15.70;99.90
50586;DHT22;36542;51.700;8.846;2023-08-30T06:12:45;15.80;99.90
50586;DHT22;36542;51.700;8.846;2023-08-30T06:15:11;15.90;99.90
50586;DHT22;36542;51.700;8.846;2023-08-30T06:17:36;16.30;99.90
50586;DHT22;36542;51.700;8.846;2023-08-30T06:20:02;16.70;99.90
50586;DHT22;36542;51.700;8.846;2023-08-30T06:22:28;17.00;99.90
50586;DHT22;36542;51.700;8.846;2023-08-30T06:24:53;17.20;99.90
50586;DHT22;36542;51.700;8.846;2023-08-30T06:27:19;17.20;99.90
50586;DHT22;36542;51.700;8.846;2023-08-30T06:29:45;17.30;99.90
50586;DHT22;36542;51.700;8.846;2023-08-30T06:32:11;17.50;99.90
50586;DHT22;36542;51.700;8.846;2023-08-30T06:34:36;17.70;99.90
50586;DHT22;36542;51.700;8.846;2023-08-30T06:37:02;18.00;99.90
50586;DHT22;36542;51.700;8.846;2023-08-30T06:39:33;18.40;99.90
50586;DHT22;36542;51.700;8.846;2023-08-30T06:42:00;18.50;99.90
50586;DHT22;36542;51.700;8.846;2023-08-30T06:44:25;18.60;99.90
50586;DHT22;36542;51.700;8.846;2023-08-30T06:46:50;18.80;99.90
50586;DHT22;36542;51.700;8.846;2023-08-30T06:49:17;19.00;99.90
50586;DHT22;36542;51.700;8.846;2023-08-30T06:51:43;19.40;99.90
50586;DHT22;36542;51.700;8.846;2023-08-30T06:54:08;19.90;99.90
50586;DHT22;36542;51.700;8.846;2023-08-30T06:56:34;20.30;99.90
50586;DHT22;36542;51.700;8.846;2023-08-30T06:58:59;20.50;99.90
50586;DHT22;36542;51.700;8.846;2023-08-30T07:01:25;20.40;99.90
50586;DHT22;36542;51.700;8.846;2023-08-30T07:03:50;20.60;99.90
50586;DHT22;36542;51.700;8.846;2023-08-30T07:06:16;20.90;99.90
50586;DHT22;36542;51.700;8.846;2023-08-30T07:08:41;20.80;99.90
50586;DHT22;36542;51.700;8.846;2023-08-30T07:11:07;20.70;99.90
50586;DHT22;36542;51.700;8.846;2023-08-30T07:13:32;20.30;99.90
50586;DHT22;36542;51.700;8.846;2023-08-30T07:15:58;19.60;99.90
50586;DHT22;36542;51.700;8.846;2023-08-30T07:18:23;19.30;99.90
50586;DHT22;36542;51.700;8.846;2023-08-30T07:20:49;19.40;99.90
50586;DHT22;36542;51.700;8.846;2023-08-30T07:23:14;19.10;99.90
50586;DHT22;36542;51.700;8.846;2023-08-30T07:25:40;19.20;99.90
50586;DHT22;36542;51.700;8.846;2023-08-30T07:28:06;19.30;99.90
50586;DHT22;36542;51.700;8.846;2023-08-30T07:30:31;19.40;99.90
50586;DHT22;36542;51.700;8.846;2023-08-30T07:32:58;19.50;99.90
50586;DHT22;36542;51.700;8.846;2023-08-30T07:35:23;19.40;99.90
50586;DHT22;36542;51.700;8.846;2023-08-30T07:37:49;19.80;99.90
50586;DHT22;36542;51.700;8.846;2023-08-30T07:40:14;19.90;99.90
50586;DHT22;36542;51.700;8.846;2023-08-30T07:42:40;20.20;99.90
50586;DHT22;36542;51.700;8.846;2023-08-30T07:45:06;21.00;99.90
50586;DHT22;36542;51.700;8.846;2023-08-30T07:47:32;21.40;99.90
50586;DHT22;36542;51.700;8.846;2023-08-30T07:49:57;21.80;99.90
50586;DHT22;36542;51.700;8.846;2023-08-30T07:52:23;21.80;99.90
50586;DHT22;36542;51.700;8.846;2023-08-30T07:54:48;22.00;99.90
50586;DHT22;36542;51.700;8.846;2023-08-30T07:57:14;22.30;99.90
50586;DHT22;36542;51.700;8.846;2023-08-30T07:59:39;22.30;99.90
50586;DHT22;36542;51.700;8.846;2023-08-30T08:02:06;22.00;99.90
50586;DHT22;36542;51.700;8.846;2023-08-30T08:04:33;21.00;99.90
50586;DHT22;36542;51.700;8.846;2023-08-30T08:06:59;21.00;99.90
50586;DHT22;36542;51.700;8.846;2023-08-30T08:09:25;20.80;99.90
50586;DHT22;36542;51.700;8.846;2023-08-30T08:11:51;21.00;99.90
50586;DHT22;36542;51.700;8.846;2023-08-30T08:14:16;21.60;99.90
50586;DHT22;36542;51.700;8.846;2023-08-30T08:16:42;21.50;99.90
50586;DHT22;36542;51.700;8.846;2023-08-30T08:19:07;21.60;99.90
50586;DHT22;36542;51.700;8.846;2023-08-30T08:21:34;22.40;99.90
50586;DHT22;36542;51.700;8.846;2023-08-30T08:24:00;22.00;99.90
50586;DHT22;36542;51.700;8.846;2023-08-30T08:26:26;21.60;99.90
50586;DHT22;36542;51.700;8.846;2023-08-30T08:28:51;21.80;99.90
50586;DHT22;36542;51.700;8.846;2023-08-30T08:31:17;21.70;99.90
50586;DHT22;36542;51.700;8.846;2023-08-30T08:33:43;21.40;99.90
50586;DHT22;36542;51.700;8.846;2023-08-30T08:36:09;21.90;99.90
50586;DHT22;36542;51.700;8.846;2023-08-30T08:38:34;23.00;99.90
50586;DHT22;36542;51.700;8.846;2023-08-30T08:41:05;23.50;99.90
50586;DHT22;36542;51.700;8.846;2023-08-30T08:43:32;23.20;99.90
50586;DHT22;36542;51.700;8.846;2023-08-30T08:46:02;23.20;99.90
50586;DHT22;36542;51.700;8.846;2023-08-30T08:48:29;23.50;99.90
50586;DHT22;36542;51.700;8.846;2023-08-30T08:50:57;24.50;99.90
50586;DHT22;36542;51.700;8.846;2023-08-30T08:53:24;24.50;99.90
50586;DHT22;36542;51.700;8.846;2023-08-30T08:55:50;23.90;99.90
50586;DHT22;36542;51.700;8.846;2023-08-30T08:58:16;23.20;99.90
50586;DHT22;36542;51.700;8.846;2023-08-30T09:00:43;23.70;99.90
50586;DHT22;36542;51.700;8.846;2023-08-30T09:03:09;24.00;99.90
50586;DHT22;36542;51.700;8.846;2023-08-30T09:05:37;24.00;99.90
50586;DHT22;36542;51.700;8.846;2023-08-30T09:08:04;23.90;99.90
50586;DHT22;36542;51.700;8.846;2023-08-30T09:10:34;23.80;99.90
50586;DHT22;36542;51.700;8.846;2023-08-30T09:13:00;24.60;99.90
50586;DHT22;36542;51.700;8.846;2023-08-30T09:15:33;23.50;99.90
50586;DHT22;36542;51.700;8.846;2023-08-30T09:17:59;23.30;99.90
50586;DHT22;36542;51.700;8.846;2023-08-30T09:20:24;23.20;99.90
50586;DHT22;36542;51.700;8.846;2023-08-30T09:22:50;22.60;99.90
50586;DHT22;36542;51.700;8.846;2023-08-30T09:25:27;22.90;99.90
50586;DHT22;36542;51.700;8.846;2023-08-30T09:28:02;24.10;99.90
50586;DHT22;36542;51.700;8.846;2023-08-30T09:30:29;25.20;99.90
50586;DHT22;36542;51.700;8.846;2023-08-30T09:33:01;24.50;99.90
50586;DHT22;36542;51.700;8.846;2023-08-30T09:35:26;24.40;99.90
50586;DHT22;36542;51.700;8.846;2023-08-30T09:37:52;25.30;99.90
50586;DHT22;36542;51.700;8.846;2023-08-30T09:40:20;25.00;99.90
50586;DHT22;36542;51.700;8.846;2023-08-30T09:42:46;25.40;99.90
50586;DHT22;36542;51.700;8.846;2023-08-30T09:45:21;25.80;99.90
50586;DHT22;36542;51.700;8.846;2023-08-30T09:47:48;24.90;99.90
50586;DHT22;36542;51.700;8.846;2023-08-30T09:50:17;24.20;99.90
50586;DHT22;36542;51.700;8.846;2023-08-30T09:52:44;24.70;99.90
50586;DHT22;36542;51.700;8.846;2023-08-30T09:55:10;24.90;99.90
50586;DHT22;36542;51.700;8.846;2023-08-30T09:57:36;24.50;99.90
50586;DHT22;36542;51.700;8.846;2023-08-30T10:00:02;24.10;99.90
50586;DHT22;36542;51.700;8.846;2023-08-30T10:02:30;25.10;99.90
50586;DHT22;36542;51.700;8.846;2023-08-30T10:04:56;24.60;99.90
50586;DHT22;36542;51.700;8.846;2023-08-30T10:07:23;24.80;99.90
50586;DHT22;36542;51.700;8.846;2023-08-30T10:09:50;24.20;99.90
50586;DHT22;36542;51.700;8.846;2023-08-30T10:12:16;23.60;99.90
50586;DHT22;36542;51.700;8.846;2023-08-30T10:14:45;23.20;99.90
50586;DHT22;36542;51.700;8.846;2023-08-30T10:17:12;23.70;99.90
50586;DHT22;36542;51.700;8.846;2023-08-30T10:19:37;23.60;99.90
50586;DHT22;36542;51.700;8.846;2023-08-30T10:22:05;23.80;99.90
50586;DHT22;36542;51.700;8.846;2023-08-30T10:24:40;23.30;99.90
50586;DHT22;36542;51.700;8.846;2023-08-30T10:27:08;23.30;99.40
50586;DHT22;36542;51.700;8.846;2023-08-30T10:29:35;23.20;99.20
50586;DHT22;36542;51.700;8.846;2023-08-30T10:32:05;23.00;99.90
50586;DHT22;36542;51.700;8.846;2023-08-30T10:34:32;23.20;99.90
50586;DHT22;36542;51.700;8.846;2023-08-30T10:37:00;22.80;99.90
50586;DHT22;36542;51.700;8.846;2023-08-30T10:39:36;22.70;99.90
50586;DHT22;36542;51.700;8.846;2023-08-30T10:44:33;23.90;97.50
50586;DHT22;36542;51.700;8.846;2023-08-30T10:47:02;24.30;97.40
50586;DHT22;36542;51.700;8.846;2023-08-30T10:49:29;24.90;97.50
50586;DHT22;36542;51.700;8.846;2023-08-30T10:51:59;25.30;97.50
50586;DHT22;36542;51.700;8.846;2023-08-30T10:54:36;25.20;98.60
50586;DHT22;36542;51.700;8.846;2023-08-30T10:57:03;25.10;97.50
50586;DHT22;36542;51.700;8.846;2023-08-30T10:59:28;24.70;96.80
50586;DHT22;36542;51.700;8.846;2023-08-30T11:01:55;24.70;97.10
50586;DHT22;36542;51.700;8.846;2023-08-30T11:04:21;25.00;97.00
50586;DHT22;36542;51.700;8.846;2023-08-30T11:06:49;24.60;97.90
50586;DHT22;36542;51.700;8.846;2023-08-30T11:09:16;23.80;97.60
50586;DHT22;36542;51.700;8.846;2023-08-30T11:11:46;23.50;98.30
50586;DHT22;36542;51.700;8.846;2023-08-30T11:14:12;23.70;98.10
50586;DHT22;36542;51.700;8.846;2023-08-30T11:16:39;24.00;96.70
50586;DHT22;36542;51.700;8.846;2023-08-30T11:19:06;24.20;97.40
50586;DHT22;36542;51.700;8.846;2023-08-30T11:21:35;23.30;97.20
50586;DHT22;36542;51.700;8.846;2023-08-30T11:24:01;23.30;97.80
50586;DHT22;36542;51.700;8.846;2023-08-30T11:26:28;22.90;98.40
50586;DHT22;36542;51.700;8.846;2023-08-30T11:28:55;22.60;99.30
50586;DHT22;36542;51.700;8.846;2023-08-30T11:31:22;22.60;99.90
50586;DHT22;36542;51.700;8.846;2023-08-30T11:33:55;22.30;99.90
50586;DHT22;36542;51.700;8.846;2023-08-30T11:36:22;22.00;99.90
50586;DHT22;36542;51.700;8.846;2023-08-30T11:38:55;21.60;99.90
50586;DHT22;36542;51.700;8.846;2023-08-30T11:41:21;21.50;99.90
50586;DHT22;36542;51.700;8.846;2023-08-30T11:43:50;21.30;99.90
50586;DHT22;36542;51.700;8.846;2023-08-30T11:46:20;21.50;99.90
50586;DHT22;36542;51.700;8.846;2023-08-30T11:48:48;21.30;99.90
50586;DHT22;36542;51.700;8.846;2023-08-30T11:51:15;21.30;99.90
50586;DHT22;36542;51.700;8.846;2023-08-30T11:53:41;21.70;99.90
50586;DHT22;36542;51.700;8.846;2023-08-30T11:56:07;22.10;99.90
50586;DHT22;36542;51.700;8.846;2023-08-30T11:58:34;22.40;99.90
50586;DHT22;36542;51.700;8.846;2023-08-30T12:01:00;22.30;99.60
50586;DHT22;36542;51.700;8.846;2023-08-30T12:03:32;22.30;99.90
50586;DHT22;36542;51.700;8.846;2023-08-30T12:05:58;22.10;99.90
50586;DHT22;36542;51.700;8.846;2023-08-30T12:08:29;21.90;99.90
50586;DHT22;36542;51.700;8.846;2023-08-30T12:10:57;21.90;99.90
50586;DHT22;36542;51.700;8.846;2023-08-30T12:13:27;22.10;99.90
50586;DHT22;36542;51.700;8.846;2023-08-30T12:15:54;22.40;99.90
50586;DHT22;36542;51.700;8.846;2023-08-30T12:18:24;22.60;99.90
50586;DHT22;36542;51.700;8.846;2023-08-30T12:21:03;22.40;99.90
50586;DHT22;36542;51.700;8.846;2023-08-30T12:23:30;22.40;99.90
50586;DHT22;36542;51.700;8.846;2023-08-30T12:26:03;22.50;99.90
50586;DHT22;36542;51.700;8.846;2023-08-30T12:28:34;22.40;99.90
50586;DHT22;36542;51.700;8.846;2023-08-30T12:31:00;22.20;99.90
50586;DHT22;36542;51.700;8.846;2023-08-30T12:33:26;21.80;99.90
50586;DHT22;36542;51.700;8.846;2023-08-30T12:35:54;21.50;99.90
50586;DHT22;36542;51.700;8.846;2023-08-30T12:38:20;21.60;99.90
50586;DHT22;36542;51.700;8.846;2023-08-30T12:40:47;21.60;99.90
50586;DHT22;36542;51.700;8.846;2023-08-30T12:43:13;21.50;99.90
50586;DHT22;36542;51.700;8.846;2023-08-30T12:45:39;21.00;99.90
50586;DHT22;36542;51.700;8.846;2023-08-30T12:48:06;20.90;99.90
50586;DHT22;36542;51.700;8.846;2023-08-30T12:50:32;21.00;99.90
50586;DHT22;36542;51.700;8.846;2023-08-30T12:52:57;20.90;99.90
50586;DHT22;36542;51.700;8.846;2023-08-30T12:55:23;20.90;99.90
50586;DHT22;36542;51.700;8.846;2023-08-30T12:57:48;20.70;99.90
50586;DHT22;36542;51.700;8.846;2023-08-30T13:00:14;20.70;99.90
50586;DHT22;36542;51.700;8.846;2023-08-30T13:02:40;20.70;99.90
50586;DHT22;36542;51.700;8.846;2023-08-30T13:05:06;20.50;99.90
50586;DHT22;36542;51.700;8.846;2023-08-30T13:07:31;20.30;99.90
50586;DHT22;36542;51.700;8.846;2023-08-30T13:09:57;19.90;99.90
50586;DHT22;36542;51.700;8.846;2023-08-30T13:12:23;19.80;99.90
50586;DHT22;36542;51.700;8.846;2023-08-30T13:14:48;19.70;99.90
50586;DHT22;36542;51.700;8.846;2023-08-30T13:17:14;19.60;99.90
50586;DHT22;36542;51.700;8.846;2023-08-30T13:19:40;19.60;99.90
50586;DHT22;36542;51.700;8.846;2023-08-30T13:22:05;19.50;99.90
50586;DHT22;36542;51.700;8.846;2023-08-30T13:24:31;19.10;99.90
50586;DHT22;36542;51.700;8.846;2023-08-30T13:26:58;18.60;99.90
50586;DHT22;36542;51.700;8.846;2023-08-30T13:29:23;18.60;99.90
50586;DHT22;36542;51.700;8.846;2023-08-30T13:31:49;18.70;99.90
50586;DHT22;36542;51.700;8.846;2023-08-30T13:34:14;18.90;99.90
50586;DHT22;36542;51.700;8.846;2023-08-30T13:36:40;19.00;99.90
50586;DHT22;36542;51.700;8.846;2023-08-30T13:39:05;19.20;99.90
50586;DHT22;36542;51.700;8.846;2023-08-30T13:41:31;19.30;99.90
50586;DHT22;36542;51.700;8.846;2023-08-30T13:43:56;19.30;99.90
50586;DHT22;36542;51.700;8.846;2023-08-30T13:46:23;19.10;99.90
50586;DHT22;36542;51.700;8.846;2023-08-30T13:48:49;19.00;99.90
50586;DHT22;36542;51.700;8.846;2023-08-30T13:51:20;18.70;99.90
50586;DHT22;36542;51.700;8.846;2023-08-30T13:53:46;18.60;99.90
50586;DHT22;36542;51.700;8.846;2023-08-30T13:56:11;18.30;99.90
50586;DHT22;36542;51.700;8.846;2023-08-30T13:58:36;18.00;99.90
50586;DHT22;36542;51.700;8.846;2023-08-30T14:01:02;17.70;99.90
50586;DHT22;36542;51.700;8.846;2023-08-30T14:03:28;17.40;99.90
50586;DHT22;36542;51.700;8.846;2023-08-30T14:05:53;17.40;99.90
50586;DHT22;36542;51.700;8.846;2023-08-30T14:08:19;17.30;99.90
50586;DHT22;36542;51.700;8.846;2023-08-30T14:10:44;17.00;99.90
50586;DHT22;36542;51.700;8.846;2023-08-30T14:13:10;17.00;99.90
50586;DHT22;36542;51.700;8.846;2023-08-30T14:15:35;17.00;99.90
50586;DHT22;36542;51.700;8.846;2023-08-30T14:18:01;16.80;99.90
50586;DHT22;36542;51.700;8.846;2023-08-30T14:20:28;16.90;99.90
50586;DHT22;36542;51.700;8.846;2023-08-30T14:22:53;16.90;99.90
50586;DHT22;36542;51.700;8.846;2023-08-30T14:25:19;16.80;99.90
50586;DHT22;36542;51.700;8.846;2023-08-30T14:27:44;16.70;99.90
50586;DHT22;36542;51.700;8.846;2023-08-30T14:30:10;16.50;99.90
50586;DHT22;36542;51.700;8.846;2023-08-30T14:32:36;16.50;99.90
50586;DHT22;36542;51.700;8.846;2023-08-30T14:35:03;16.40;99.90
50586;DHT22;36542;51.700;8.846;2023-08-30T14:37:29;16.10;99.90
50586;DHT22;36542;51.700;8.846;2023-08-30T14:39:55;15.90;99.90
50586;DHT22;36542;51.700;8.846;2023-08-30T14:42:20;15.80;99.90
50586;DHT22;36542;51.700;8.846;2023-08-30T14:44:50;15.60;99.90
50586;DHT22;36542;51.700;8.846;2023-08-30T14:47:19;15.40;99.90
50586;DHT22;36542;51.700;8.846;2023-08-30T14:49:46;15.30;99.90
50586;DHT22;36542;51.700;8.846;2023-08-30T14:52:15;15.30;99.90
50586;DHT22;36542;51.700;8.846;2023-08-30T14:54:41;15.10;99.90
50586;DHT22;36542;51.700;8.846;2023-08-30T14:57:07;15.00;99.90
50586;DHT22;36542;51.700;8.846;2023-08-30T14:59:32;14.80;99.90
50586;DHT22;36542;51.700;8.846;2023-08-30T15:01:58;14.70;99.90
50586;DHT22;36542;51.700;8.846;2023-08-30T15:04:24;14.70;99.90
50586;DHT22;36542;51.700;8.846;2023-08-30T15:06:49;14.60;99.90
50586;DHT22;36542;51.700;8.846;2023-08-30T15:09:15;14.60;99.90
50586;DHT22;36542;51.700;8.846;2023-08-30T15:11:44;14.50;99.90
50586;DHT22;36542;51.700;8.846;2023-08-30T15:14:10;14.50;99.90
50586;DHT22;36542;51.700;8.846;2023-08-30T15:16:36;14.50;99.90
50586;DHT22;36542;51.700;8.846;2023-08-30T15:19:02;14.50;99.90
50586;DHT22;36542;51.700;8.846;2023-08-30T15:21:28;14.50;99.90
50586;DHT22;36542;51.700;8.846;2023-08-30T15:23:53;14.50;99.90
50586;DHT22;36542;51.700;8.846;2023-08-30T15:26:19;14.50;99.90
50586;DHT22;36542;51.700;8.846;2023-08-30T15:28:47;14.50;99.90
50586;DHT22;36542;51.700;8.846;2023-08-30T15:31:13;14.40;99.90
50586;DHT22;36542;51.700;8.846;2023-08-30T15:33:39;14.40;99.90